sensor_id;sensor_type;location;lat;lon;timestamp;P1;durP1;ratioP1;P2;durP2;ratioP2
10293;SDS011;5192;50.328;7.610;2022-08-19T00:01:58;20.33;;;18.57;;
10293;SDS011;5192;50.328;7.610;2022-08-19T00:04:29;22.40;;;20.47;;
10293;SDS011;5192;50.328;7.610;2022-08-19T00:07:02;22.33;;;20.43;;
10293;SDS011;5192;50.328;7.610;2022-08-19T00:09:32;21.47;;;19.57;;
10293;SDS011;5192;50.328;7.610;2022-08-19T00:11:59;21.93;;;20.03;;
10293;SDS011;5192;50.328;7.610;2022-08-19T00:14:28;21.07;;;19.10;;
10293;SDS011;5192;50.328;7.610;2022-08-19T00:16:56;20.03;;;18.23;;
10293;SDS011;5192;50.328;7.610;2022-08-19T00:19:23;21.60;;;19.70;;
10293;SDS011;5192;50.328;7.610;2022-08-19T00:21:51;20.90;;;19.10;;
10293;SDS011;5192;50.328;7.610;2022-08-19T00:24:18;21.20;;;19.23;;
10293;SDS011;5192;50.328;7.610;2022-08-19T00:26:45;21.67;;;19.77;;
10293;SDS011;5192;50.328;7.610;2022-08-19T00:29:12;20.40;;;18.57;;
10293;SDS011;5192;50.328;7.610;2022-08-19T00:31:41;20.25;;;18.55;;
10293;SDS011;5192;50.328;7.610;2022-08-19T00:34:09;20.87;;;19.03;;
10293;SDS011;5192;50.328;7.610;2022-08-19T00:36:38;20.83;;;18.93;;
10293;SDS011;5192;50.328;7.610;2022-08-19T00:39:06;20.23;;;18.50;;
10293;SDS011;5192;50.328;7.610;2022-08-19T00:41:31;20.97;;;18.87;;
10293;SDS011;5192;50.328;7.610;2022-08-19T00:44:05;20.23;;;18.43;;
10293;SDS011;5192;50.328;7.610;2022-08-19T00:46:34;20.70;;;18.90;;
10293;SDS011;5192;50.328;7.610;2022-08-19T00:49:06;19.50;;;17.70;;
10293;SDS011;5192;50.328;7.610;2022-08-19T00:51:37;18.43;;;16.83;;
10293;SDS011;5192;50.328;7.610;2022-08-19T00:54:05;20.53;;;18.73;;
10293;SDS011;5192;50.328;7.610;2022-08-19T00:56:31;19.63;;;18.00;;
10293;SDS011;5192;50.328;7.610;2022-08-19T00:58:59;20.93;;;18.93;;
10293;SDS011;5192;50.328;7.610;2022-08-19T01:01:27;21.63;;;19.60;;
10293;SDS011;5192;50.328;7.610;2022-08-19T01:03:53;20.97;;;19.07;;
10293;SDS011;5192;50.328;7.610;2022-08-19T01:06:19;22.23;;;20.13;;
10293;SDS011;5192;50.328;7.610;2022-08-19T01:08:45;21.50;;;19.60;;
10293;SDS011;5192;50.328;7.610;2022-08-19T01:11:12;21.90;;;19.90;;
10293;SDS011;5192;50.328;7.610;2022-08-19T01:13:40;23.23;;;21.23;;
10293;SDS011;5192;50.328;7.610;2022-08-19T01:16:11;21.77;;;19.77;;
10293;SDS011;5192;50.328;7.610;2022-08-19T01:18:40;19.48;;;17.67;;
10293;SDS011;5192;50.328;7.610;2022-08-19T01:21:10;18.83;;;17.23;;
10293;SDS011;5192;50.328;7.610;2022-08-19T01:23:57;18.42;;;16.67;;
10293;SDS011;5192;50.328;7.610;2022-08-19T01:26:26;18.07;;;16.50;;
10293;SDS011;5192;50.328;7.610;2022-08-19T01:28:55;19.60;;;17.70;;
10293;SDS011;5192;50.328;7.610;2022-08-19T01:31:24;18.90;;;17.20;;
10293;SDS011;5192;50.328;7.610;2022-08-19T01:33:53;18.77;;;17.27;;
10293;SDS011;5192;50.328;7.610;2022-08-19T01:36:34;19.00;;;17.00;;
10293;SDS011;5192;50.328;7.610;2022-08-19T01:39:07;18.97;;;17.30;;
10293;SDS011;5192;50.328;7.610;2022-08-19T01:41:36;18.73;;;16.93;;
10293;SDS011;5192;50.328;7.610;2022-08-19T01:44:03;19.47;;;17.50;;
10293;SDS011;5192;50.328;7.610;2022-08-19T01:46:32;19.33;;;17.57;;
10293;SDS011;5192;50.328;7.610;2022-08-19T01:48:59;18.40;;;16.67;;
10293;SDS011;5192;50.328;7.610;2022-08-19T01:51:25;18.77;;;16.97;;
10293;SDS011;5192;50.328;7.610;2022-08-19T01:53:52;17.80;;;16.17;;
10293;SDS011;5192;50.328;7.610;2022-08-19T01:56:18;17.77;;;16.23;;
10293;SDS011;5192;50.328;7.610;2022-08-19T01:58:49;19.30;;;17.30;;
10293;SDS011;5192;50.328;7.610;2022-08-19T02:01:23;17.90;;;16.30;;
10293;SDS011;5192;50.328;7.610;2022-08-19T02:03:50;19.23;;;17.53;;
10293;SDS011;5192;50.328;7.610;2022-08-19T02:06:20;17.37;;;15.87;;
10293;SDS011;5192;50.328;7.610;2022-08-19T02:08:45;17.83;;;16.23;;
10293;SDS011;5192;50.328;7.610;2022-08-19T02:11:24;17.13;;;15.63;;
10293;SDS011;5192;50.328;7.610;2022-08-19T02:13:53;17.10;;;15.53;;
10293;SDS011;5192;50.328;7.610;2022-08-19T02:16:20;18.10;;;16.50;;
10293;SDS011;5192;50.328;7.610;2022-08-19T02:18:49;18.27;;;16.67;;
10293;SDS011;5192;50.328;7.610;2022-08-19T02:21:17;17.03;;;15.53;;
10293;SDS011;5192;50.328;7.610;2022-08-19T02:23:47;16.67;;;15.23;;
10293;SDS011;5192;50.328;7.610;2022-08-19T02:26:14;16.73;;;15.33;;
10293;SDS011;5192;50.328;7.610;2022-08-19T02:28:43;17.37;;;15.77;;
10293;SDS011;5192;50.328;7.610;2022-08-19T02:31:12;16.80;;;15.27;;
10293;SDS011;5192;50.328;7.610;2022-08-19T02:33:45;17.00;;;15.40;;
10293;SDS011;5192;50.328;7.610;2022-08-19T02:36:12;16.90;;;15.37;;
10293;SDS011;5192;50.328;7.610;2022-08-19T02:38:44;17.40;;;15.80;;
10293;SDS011;5192;50.328;7.610;2022-08-19T02:41:12;18.27;;;16.53;;
10293;SDS011;5192;50.328;7.610;2022-08-19T02:43:41;17.63;;;16.13;;
10293;SDS011;5192;50.328;7.610;2022-08-19T02:46:13;17.33;;;15.67;;
10293;SDS011;5192;50.328;7.610;2022-08-19T02:49:06;17.43;;;15.73;;
10293;SDS011;5192;50.328;7.610;2022-08-19T02:51:38;18.47;;;16.77;;
10293;SDS011;5192;50.328;7.610;2022-08-19T02:54:08;18.17;;;16.67;;
10293;SDS011;5192;50.328;7.610;2022-08-19T02:56:36;16.90;;;15.33;;
10293;SDS011;5192;50.328;7.610;2022-08-19T02:59:05;19.43;;;17.67;;
10293;SDS011;5192;50.328;7.610;2022-08-19T03:01:33;19.53;;;17.73;;
10293;SDS011;5192;50.328;7.610;2022-08-19T03:04:00;19.00;;;17.30;;
10293;SDS011;5192;50.328;7.610;2022-08-19T03:06:31;18.80;;;17.07;;
10293;SDS011;5192;50.328;7.610;2022-08-19T03:09:01;18.67;;;16.87;;
10293;SDS011;5192;50.328;7.610;2022-08-19T03:11:29;19.63;;;17.83;;
10293;SDS011;5192;50.328;7.610;2022-08-19T03:13:59;19.50;;;17.60;;
10293;SDS011;5192;50.328;7.610;2022-08-19T03:16:27;19.97;;;18.07;;
10293;SDS011;5192;50.328;7.610;2022-08-19T03:18:55;19.43;;;17.47;;
10293;SDS011;5192;50.328;7.610;2022-08-19T03:21:27;20.70;;;18.70;;
10293;SDS011;5192;50.328;7.610;2022-08-19T03:24:01;18.97;;;17.27;;
10293;SDS011;5192;50.328;7.610;2022-08-19T03:26:30;19.50;;;17.73;;
10293;SDS011;5192;50.328;7.610;2022-08-19T03:29:01;20.07;;;18.07;;
10293;SDS011;5192;50.328;7.610;2022-08-19T03:31:29;18.73;;;17.03;;
10293;SDS011;5192;50.328;7.610;2022-08-19T03:33:57;18.43;;;16.73;;
10293;SDS011;5192;50.328;7.610;2022-08-19T03:36:24;19.00;;;17.23;;
10293;SDS011;5192;50.328;7.610;2022-08-19T03:38:53;18.63;;;16.87;;
10293;SDS011;5192;50.328;7.610;2022-08-19T03:41:22;18.40;;;16.67;;
10293;SDS011;5192;50.328;7.610;2022-08-19T03:43:51;17.73;;;16.13;;
10293;SDS011;5192;50.328;7.610;2022-08-19T03:46:22;19.00;;;17.20;;
10293;SDS011;5192;50.328;7.610;2022-08-19T03:49:00;18.27;;;16.37;;
10293;SDS011;5192;50.328;7.610;2022-08-19T03:51:37;17.23;;;15.73;;
10293;SDS011;5192;50.328;7.610;2022-08-19T03:54:07;16.73;;;15.13;;
10293;SDS011;5192;50.328;7.610;2022-08-19T03:56:35;17.43;;;15.73;;
10293;SDS011;5192;50.328;7.610;2022-08-19T03:59:06;17.17;;;15.47;;
10293;SDS011;5192;50.328;7.610;2022-08-19T04:01:39;15.93;;;14.43;;
10293;SDS011;5192;50.328;7.610;2022-08-19T04:04:05;16.63;;;15.13;;
10293;SDS011;5192;50.328;7.610;2022-08-19T04:06:31;16.67;;;15.10;;
10293;SDS011;5192;50.328;7.610;2022-08-19T04:09:00;15.90;;;14.40;;
10293;SDS011;5192;50.328;7.610;2022-08-19T04:11:30;17.07;;;15.43;;
10293;SDS011;5192;50.328;7.610;2022-08-19T04:14:01;16.53;;;14.93;;
10293;SDS011;5192;50.328;7.610;2022-08-19T04:16:27;17.10;;;15.40;;
10293;SDS011;5192;50.328;7.610;2022-08-19T04:18:54;16.43;;;14.73;;
10293;SDS011;5192;50.328;7.610;2022-08-19T04:21:23;17.50;;;15.87;;
10293;SDS011;5192;50.328;7.610;2022-08-19T04:23:51;17.77;;;15.97;;
10293;SDS011;5192;50.328;7.610;2022-08-19T04:26:22;16.63;;;15.03;;
10293;SDS011;5192;50.328;7.610;2022-08-19T04:28:50;17.00;;;15.50;;
10293;SDS011;5192;50.328;7.610;2022-08-19T04:31:19;16.40;;;14.90;;
10293;SDS011;5192;50.328;7.610;2022-08-19T04:33:53;17.17;;;15.50;;
10293;SDS011;5192;50.328;7.610;2022-08-19T04:36:23;16.93;;;15.33;;
10293;SDS011;5192;50.328;7.610;2022-08-19T04:38:57;16.47;;;14.87;;
10293;SDS011;5192;50.328;7.610;2022-08-19T04:41:28;16.03;;;14.53;;
10293;SDS011;5192;50.328;7.610;2022-08-19T04:44:15;17.33;;;15.73;;
10293;SDS011;5192;50.328;7.610;2022-08-19T04:46:48;16.03;;;14.60;;
10293;SDS011;5192;50.328;7.610;2022-08-19T04:49:18;16.13;;;14.63;;
10293;SDS011;5192;50.328;7.610;2022-08-19T04:51:50;16.10;;;14.60;;
10293;SDS011;5192;50.328;7.610;2022-08-19T04:54:21;17.53;;;15.80;;
10293;SDS011;5192;50.328;7.610;2022-08-19T04:56:56;16.00;;;14.60;;
10293;SDS011;5192;50.328;7.610;2022-08-19T04:59:22;16.57;;;14.87;;
10293;SDS011;5192;50.328;7.610;2022-08-19T05:01:48;16.77;;;15.17;;
10293;SDS011;5192;50.328;7.610;2022-08-19T05:04:19;17.10;;;15.50;;
10293;SDS011;5192;50.328;7.610;2022-08-19T05:06:46;16.93;;;15.30;;
10293;SDS011;5192;50.328;7.610;2022-08-19T05:09:15;17.83;;;16.03;;
10293;SDS011;5192;50.328;7.610;2022-08-19T05:11:47;16.53;;;14.90;;
10293;SDS011;5192;50.328;7.610;2022-08-19T05:14:16;15.73;;;14.33;;
10293;SDS011;5192;50.328;7.610;2022-08-19T05:16:42;17.77;;;15.97;;
10293;SDS011;5192;50.328;7.610;2022-08-19T05:19:09;19.63;;;17.80;;
10293;SDS011;5192;50.328;7.610;2022-08-19T05:21:54;17.60;;;15.90;;
10293;SDS011;5192;50.328;7.610;2022-08-19T05:24:40;17.93;;;16.40;;
10293;SDS011;5192;50.328;7.610;2022-08-19T05:27:05;17.30;;;15.80;;
10293;SDS011;5192;50.328;7.610;2022-08-19T05:29:32;17.73;;;16.13;;
10293;SDS011;5192;50.328;7.610;2022-08-19T05:32:05;17.60;;;15.73;;
10293;SDS011;5192;50.328;7.610;2022-08-19T05:34:36;17.30;;;15.50;;
10293;SDS011;5192;50.328;7.610;2022-08-19T05:37:03;17.63;;;16.10;;
10293;SDS011;5192;50.328;7.610;2022-08-19T05:39:35;17.93;;;16.20;;
10293;SDS011;5192;50.328;7.610;2022-08-19T05:42:03;18.77;;;16.90;;
10293;SDS011;5192;50.328;7.610;2022-08-19T05:44:39;19.65;;;17.77;;
10293;SDS011;5192;50.328;7.610;2022-08-19T05:47:15;18.87;;;17.13;;
10293;SDS011;5192;50.328;7.610;2022-08-19T05:49:46;19.53;;;17.57;;
10293;SDS011;5192;50.328;7.610;2022-08-19T05:52:16;20.13;;;18.13;;
10293;SDS011;5192;50.328;7.610;2022-08-19T05:54:45;19.53;;;17.60;;
10293;SDS011;5192;50.328;7.610;2022-08-19T05:57:16;18.97;;;17.20;;
10293;SDS011;5192;50.328;7.610;2022-08-19T05:59:44;20.53;;;18.50;;
10293;SDS011;5192;50.328;7.610;2022-08-19T06:02:13;22.00;;;19.70;;
10293;SDS011;5192;50.328;7.610;2022-08-19T06:04:41;19.73;;;17.77;;
10293;SDS011;5192;50.328;7.610;2022-08-19T06:07:08;20.00;;;18.20;;
10293;SDS011;5192;50.328;7.610;2022-08-19T06:09:36;21.60;;;19.53;;
10293;SDS011;5192;50.328;7.610;2022-08-19T06:12:02;21.13;;;19.23;;
10293;SDS011;5192;50.328;7.610;2022-08-19T06:14:33;22.00;;;19.92;;
10293;SDS011;5192;50.328;7.610;2022-08-19T06:17:02;21.83;;;19.73;;
10293;SDS011;5192;50.328;7.610;2022-08-19T06:19:28;21.27;;;19.27;;
10293;SDS011;5192;50.328;7.610;2022-08-19T06:21:56;20.70;;;18.50;;
10293;SDS011;5192;50.328;7.610;2022-08-19T06:24:25;22.03;;;20.13;;
10293;SDS011;5192;50.328;7.610;2022-08-19T06:26:53;22.27;;;20.17;;
10293;SDS011;5192;50.328;7.610;2022-08-19T06:29:21;20.00;;;18.15;;
10293;SDS011;5192;50.328;7.610;2022-08-19T06:31:49;22.27;;;20.13;;
10293;SDS011;5192;50.328;7.610;2022-08-19T06:34:20;22.40;;;20.27;;
10293;SDS011;5192;50.328;7.610;2022-08-19T06:36:47;22.70;;;20.30;;
10293;SDS011;5192;50.328;7.610;2022-08-19T06:39:18;20.83;;;18.80;;
10293;SDS011;5192;50.328;7.610;2022-08-19T06:41:48;22.92;;;19.73;;
10293;SDS011;5192;50.328;7.610;2022-08-19T06:44:16;23.65;;;21.33;;
10293;SDS011;5192;50.328;7.610;2022-08-19T06:46:44;21.53;;;19.47;;
10293;SDS011;5192;50.328;7.610;2022-08-19T06:49:13;22.02;;;19.88;;
10293;SDS011;5192;50.328;7.610;2022-08-19T06:51:41;21.27;;;19.17;;
10293;SDS011;5192;50.328;7.610;2022-08-19T06:54:13;21.48;;;19.42;;
10293;SDS011;5192;50.328;7.610;2022-08-19T06:56:41;22.38;;;20.17;;
10293;SDS011;5192;50.328;7.610;2022-08-19T06:59:12;22.60;;;20.40;;
10293;SDS011;5192;50.328;7.610;2022-08-19T07:01:43;21.43;;;19.40;;
10293;SDS011;5192;50.328;7.610;2022-08-19T07:04:13;23.93;;;21.73;;
10293;SDS011;5192;50.328;7.610;2022-08-19T07:06:42;22.83;;;20.63;;
10293;SDS011;5192;50.328;7.610;2022-08-19T07:09:10;22.83;;;20.73;;
10293;SDS011;5192;50.328;7.610;2022-08-19T07:11:43;23.40;;;21.10;;
10293;SDS011;5192;50.328;7.610;2022-08-19T07:14:16;21.52;;;19.35;;
10293;SDS011;5192;50.328;7.610;2022-08-19T07:16:47;22.15;;;20.00;;
10293;SDS011;5192;50.328;7.610;2022-08-19T07:19:16;22.63;;;20.52;;
10293;SDS011;5192;50.328;7.610;2022-08-19T07:21:48;24.83;;;22.38;;
10293;SDS011;5192;50.328;7.610;2022-08-19T07:24:16;24.40;;;21.88;;
10293;SDS011;5192;50.328;7.610;2022-08-19T07:26:44;24.05;;;21.63;;
10293;SDS011;5192;50.328;7.610;2022-08-19T07:29:12;26.30;;;23.75;;
10293;SDS011;5192;50.328;7.610;2022-08-19T07:31:38;24.55;;;22.25;;
10293;SDS011;5192;50.328;7.610;2022-08-19T07:34:06;27.65;;;25.05;;
10293;SDS011;5192;50.328;7.610;2022-08-19T07:36:35;24.23;;;22.00;;
10293;SDS011;5192;50.328;7.610;2022-08-19T07:39:07;25.60;;;23.08;;
10293;SDS011;5192;50.328;7.610;2022-08-19T07:41:37;23.65;;;21.40;;
10293;SDS011;5192;50.328;7.610;2022-08-19T07:44:03;24.33;;;22.02;;
10293;SDS011;5192;50.328;7.610;2022-08-19T07:46:34;24.63;;;22.25;;
10293;SDS011;5192;50.328;7.610;2022-08-19T07:49:04;28.02;;;25.23;;
10293;SDS011;5192;50.328;7.610;2022-08-19T07:51:50;29.27;;;26.08;;
10293;SDS011;5192;50.328;7.610;2022-08-19T07:54:20;26.50;;;23.75;;
10293;SDS011;5192;50.328;7.610;2022-08-19T07:56:50;27.38;;;24.77;;
10293;SDS011;5192;50.328;7.610;2022-08-19T07:59:19;26.15;;;23.52;;
10293;SDS011;5192;50.328;7.610;2022-08-19T08:01:47;25.73;;;23.27;;
10293;SDS011;5192;50.328;7.610;2022-08-19T08:04:17;27.83;;;25.02;;
10293;SDS011;5192;50.328;7.610;2022-08-19T08:07:04;28.48;;;25.58;;
10293;SDS011;5192;50.328;7.610;2022-08-19T08:09:50;29.30;;;26.17;;
10293;SDS011;5192;50.328;7.610;2022-08-19T08:12:20;29.45;;;26.52;;
10293;SDS011;5192;50.328;7.610;2022-08-19T08:14:51;27.80;;;25.08;;
10293;SDS011;5192;50.328;7.610;2022-08-19T08:17:20;29.60;;;26.60;;
10293;SDS011;5192;50.328;7.610;2022-08-19T08:19:48;33.00;;;28.25;;
10293;SDS011;5192;50.328;7.610;2022-08-19T08:22:17;30.58;;;27.27;;
10293;SDS011;5192;50.328;7.610;2022-08-19T08:27:42;32.15;;;28.58;;
10293;SDS011;5192;50.328;7.610;2022-08-19T08:30:15;33.40;;;29.77;;
10293;SDS011;5192;50.328;7.610;2022-08-19T08:32:44;30.33;;;27.13;;
10293;SDS011;5192;50.328;7.610;2022-08-19T08:35:11;31.27;;;27.85;;
10293;SDS011;5192;50.328;7.610;2022-08-19T08:37:43;32.45;;;28.95;;
10293;SDS011;5192;50.328;7.610;2022-08-19T08:40:20;31.20;;;27.95;;
10293;SDS011;5192;50.328;7.610;2022-08-19T08:51:48;31.00;;;27.73;;
10293;SDS011;5192;50.328;7.610;2022-08-19T08:54:54;30.85;;;27.80;;
10293;SDS011;5192;50.328;7.610;2022-08-19T08:57:27;29.73;;;26.58;;
10293;SDS011;5192;50.328;7.610;2022-08-19T09:00:15;30.15;;;26.55;;
10293;SDS011;5192;50.328;7.610;2022-08-19T09:02:58;27.23;;;24.25;;
10293;SDS011;5192;50.328;7.610;2022-08-19T09:05:31;26.02;;;23.42;;
10293;SDS011;5192;50.328;7.610;2022-08-19T09:12:08;26.10;;;23.40;;
10293;SDS011;5192;50.328;7.610;2022-08-19T09:17:06;24.67;;;22.25;;
10293;SDS011;5192;50.328;7.610;2022-08-19T09:22:40;22.02;;;19.92;;
10293;SDS011;5192;50.328;7.610;2022-08-19T09:25:12;19.73;;;17.73;;
10293;SDS011;5192;50.328;7.610;2022-08-19T09:27:43;20.25;;;18.17;;
10293;SDS011;5192;50.328;7.610;2022-08-19T09:30:18;20.58;;;18.67;;
10293;SDS011;5192;50.328;7.610;2022-08-19T09:32:48;20.52;;;18.52;;
10293;SDS011;5192;50.328;7.610;2022-08-19T09:35:14;22.65;;;20.17;;
10293;SDS011;5192;50.328;7.610;2022-08-19T09:37:42;20.55;;;18.55;;
10293;SDS011;5192;50.328;7.610;2022-08-19T09:40:09;18.25;;;16.48;;
10293;SDS011;5192;50.328;7.610;2022-08-19T09:42:38;19.85;;;17.85;;
10293;SDS011;5192;50.328;7.610;2022-08-19T09:45:03;21.38;;;19.25;;
10293;SDS011;5192;50.328;7.610;2022-08-19T09:47:30;18.15;;;16.45;;
10293;SDS011;5192;50.328;7.610;2022-08-19T09:50:04;18.98;;;17.05;;
10293;SDS011;5192;50.328;7.610;2022-08-19T09:52:33;16.42;;;14.98;;
10293;SDS011;5192;50.328;7.610;2022-08-19T09:55:03;15.95;;;14.35;;
10293;SDS011;5192;50.328;7.610;2022-08-19T09:57:30;15.05;;;13.50;;
10293;SDS011;5192;50.328;7.610;2022-08-19T09:59:56;17.27;;;15.63;;
10293;SDS011;5192;50.328;7.610;2022-08-19T10:02:24;15.32;;;13.82;;
10293;SDS011;5192;50.328;7.610;2022-08-19T10:04:51;13.68;;;12.40;;
10293;SDS011;5192;50.328;7.610;2022-08-19T10:07:38;13.82;;;12.50;;
10293;SDS011;5192;50.328;7.610;2022-08-19T10:10:04;12.18;;;10.98;;
10293;SDS011;5192;50.328;7.610;2022-08-19T10:12:33;12.90;;;11.63;;
10293;SDS011;5192;50.328;7.610;2022-08-19T10:15:03;14.18;;;12.70;;
10293;SDS011;5192;50.328;7.610;2022-08-19T10:17:32;13.27;;;12.18;;
10293;SDS011;5192;50.328;7.610;2022-08-19T10:20:00;14.82;;;12.95;;
10293;SDS011;5192;50.328;7.610;2022-08-19T10:22:29;13.48;;;12.13;;
10293;SDS011;5192;50.328;7.610;2022-08-19T10:24:55;13.13;;;12.02;;
10293;SDS011;5192;50.328;7.610;2022-08-19T10:27:22;14.23;;;12.88;;
10293;SDS011;5192;50.328;7.610;2022-08-19T10:29:50;15.30;;;13.88;;
10293;SDS011;5192;50.328;7.610;2022-08-19T10:32:18;13.60;;;12.23;;
10293;SDS011;5192;50.328;7.610;2022-08-19T10:34:47;12.20;;;11.10;;
10293;SDS011;5192;50.328;7.610;2022-08-19T10:37:15;11.77;;;10.57;;
10293;SDS011;5192;50.328;7.610;2022-08-19T10:39:43;12.68;;;11.50;;
10293;SDS011;5192;50.328;7.610;2022-08-19T10:42:13;11.25;;;10.13;;
10293;SDS011;5192;50.328;7.610;2022-08-19T10:44:41;11.32;;;10.32;;
10293;SDS011;5192;50.328;7.610;2022-08-19T10:47:07;13.68;;;12.57;;
10293;SDS011;5192;50.328;7.610;2022-08-19T10:49:34;12.05;;;10.60;;
10293;SDS011;5192;50.328;7.610;2022-08-19T10:52:21;13.80;;;12.60;;
10293;SDS011;5192;50.328;7.610;2022-08-19T10:55:05;13.02;;;11.77;;
10293;SDS011;5192;50.328;7.610;2022-08-19T10:58:15;13.02;;;11.93;;
10293;SDS011;5192;50.328;7.610;2022-08-19T11:00:57;10.20;;;9.30;;
10293;SDS011;5192;50.328;7.610;2022-08-19T11:03:25;12.27;;;11.20;;
10293;SDS011;5192;50.328;7.610;2022-08-19T11:06:01;11.70;;;10.80;;
10293;SDS011;5192;50.328;7.610;2022-08-19T11:08:30;12.05;;;11.05;;
10293;SDS011;5192;50.328;7.610;2022-08-19T11:11:03;11.27;;;10.38;;
10293;SDS011;5192;50.328;7.610;2022-08-19T11:13:32;11.82;;;10.82;;
10293;SDS011;5192;50.328;7.610;2022-08-19T11:16:05;11.20;;;10.20;;
10293;SDS011;5192;50.328;7.610;2022-08-19T11:18:41;13.05;;;11.95;;
10293;SDS011;5192;50.328;7.610;2022-08-19T11:21:19;11.85;;;10.85;;
10293;SDS011;5192;50.328;7.610;2022-08-19T11:23:50;10.80;;;9.82;;
10293;SDS011;5192;50.328;7.610;2022-08-19T11:26:21;9.90;;;9.02;;
10293;SDS011;5192;50.328;7.610;2022-08-19T11:28:50;10.25;;;9.45;;
10293;SDS011;5192;50.328;7.610;2022-08-19T11:31:20;8.90;;;8.00;;
10293;SDS011;5192;50.328;7.610;2022-08-19T11:33:55;10.02;;;9.15;;
10293;SDS011;5192;50.328;7.610;2022-08-19T11:36:21;10.40;;;9.57;;
10293;SDS011;5192;50.328;7.610;2022-08-19T11:38:48;9.70;;;9.00;;
10293;SDS011;5192;50.328;7.610;2022-08-19T11:41:17;9.77;;;8.88;;
10293;SDS011;5192;50.328;7.610;2022-08-19T11:43:49;9.70;;;8.93;;
10293;SDS011;5192;50.328;7.610;2022-08-19T11:46:21;9.15;;;8.45;;
10293;SDS011;5192;50.328;7.610;2022-08-19T11:48:58;9.68;;;8.77;;
10293;SDS011;5192;50.328;7.610;2022-08-19T11:51:35;8.43;;;7.72;;
10293;SDS011;5192;50.328;7.610;2022-08-19T11:54:03;10.95;;;10.05;;
10293;SDS011;5192;50.328;7.610;2022-08-19T11:56:32;10.05;;;9.35;;
10293;SDS011;5192;50.328;7.610;2022-08-19T11:58:59;9.68;;;8.88;;
10293;SDS011;5192;50.328;7.610;2022-08-19T12:01:27;9.15;;;8.35;;
10293;SDS011;5192;50.328;7.610;2022-08-19T12:03:54;8.57;;;7.97;;
10293;SDS011;5192;50.328;7.610;2022-08-19T12:06:23;8.27;;;7.43;;
10293;SDS011;5192;50.328;7.610;2022-08-19T12:08:56;9.20;;;8.35;;
10293;SDS011;5192;50.328;7.610;2022-08-19T12:11:25;8.35;;;7.65;;
10293;SDS011;5192;50.328;7.610;2022-08-19T12:13:54;8.15;;;7.55;;
10293;SDS011;5192;50.328;7.610;2022-08-19T12:16:25;8.20;;;7.45;;
10293;SDS011;5192;50.328;7.610;2022-08-19T12:18:52;7.35;;;6.72;;
10293;SDS011;5192;50.328;7.610;2022-08-19T12:21:22;7.75;;;7.15;;
10293;SDS011;5192;50.328;7.610;2022-08-19T12:23:54;7.57;;;6.97;;
10293;SDS011;5192;50.328;7.610;2022-08-19T12:26:22;9.02;;;8.10;;
10293;SDS011;5192;50.328;7.610;2022-08-19T12:28:50;9.32;;;8.63;;
10293;SDS011;5192;50.328;7.610;2022-08-19T12:31:34;8.55;;;7.95;;
10293;SDS011;5192;50.328;7.610;2022-08-19T12:34:00;9.15;;;8.35;;
10293;SDS011;5192;50.328;7.610;2022-08-19T12:36:27;8.20;;;7.43;;
10293;SDS011;5192;50.328;7.610;2022-08-19T12:38:53;8.20;;;7.43;;
10293;SDS011;5192;50.328;7.610;2022-08-19T12:41:22;7.55;;;6.95;;
10293;SDS011;5192;50.328;7.610;2022-08-19T12:43:48;7.70;;;7.00;;
10293;SDS011;5192;50.328;7.610;2022-08-19T12:46:17;10.02;;;9.18;;
10293;SDS011;5192;50.328;7.610;2022-08-19T12:48:45;10.07;;;9.18;;
10293;SDS011;5192;50.328;7.610;2022-08-19T12:51:13;9.98;;;9.18;;
10293;SDS011;5192;50.328;7.610;2022-08-19T12:53:54;8.52;;;7.85;;
10293;SDS011;5192;50.328;7.610;2022-08-19T12:56:20;9.18;;;8.45;;
10293;SDS011;5192;50.328;7.610;2022-08-19T12:58:45;9.40;;;8.60;;
10293;SDS011;5192;50.328;7.610;2022-08-19T13:01:14;10.05;;;9.20;;
10293;SDS011;5192;50.328;7.610;2022-08-19T13:03:42;9.85;;;9.07;;
10293;SDS011;5192;50.328;7.610;2022-08-19T13:06:10;8.77;;;7.97;;
10293;SDS011;5192;50.328;7.610;2022-08-19T13:08:36;8.38;;;7.68;;
10293;SDS011;5192;50.328;7.610;2022-08-19T13:11:15;9.32;;;8.52;;
10293;SDS011;5192;50.328;7.610;2022-08-19T13:13:45;9.13;;;8.30;;
10293;SDS011;5192;50.328;7.610;2022-08-19T13:16:14;9.43;;;8.63;;
10293;SDS011;5192;50.328;7.610;2022-08-19T13:18:45;9.02;;;8.32;;
10293;SDS011;5192;50.328;7.610;2022-08-19T13:21:20;9.70;;;8.90;;
10293;SDS011;5192;50.328;7.610;2022-08-19T13:23:47;10.30;;;9.40;;
10293;SDS011;5192;50.328;7.610;2022-08-19T13:26:15;9.20;;;8.50;;
10293;SDS011;5192;50.328;7.610;2022-08-19T13:28:43;9.95;;;8.93;;
10293;SDS011;5192;50.328;7.610;2022-08-19T13:31:39;8.73;;;8.05;;
10293;SDS011;5192;50.328;7.610;2022-08-19T13:34:29;8.82;;;8.10;;
10293;SDS011;5192;50.328;7.610;2022-08-19T13:37:06;8.55;;;7.75;;
10293;SDS011;5192;50.328;7.610;2022-08-19T13:39:35;8.40;;;7.80;;
10293;SDS011;5192;50.328;7.610;2022-08-19T13:42:07;8.07;;;7.28;;
10293;SDS011;5192;50.328;7.610;2022-08-19T13:44:33;9.10;;;8.20;;
10293;SDS011;5192;50.328;7.610;2022-08-19T13:47:15;9.35;;;8.45;;
10293;SDS011;5192;50.328;7.610;2022-08-19T13:49:47;8.88;;;7.97;;
10293;SDS011;5192;50.328;7.610;2022-08-19T13:52:15;8.68;;;7.40;;
10293;SDS011;5192;50.328;7.610;2022-08-19T13:54:45;8.50;;;7.85;;
10293;SDS011;5192;50.328;7.610;2022-08-19T13:57:12;7.97;;;7.28;;
10293;SDS011;5192;50.328;7.610;2022-08-19T13:59:39;7.63;;;6.93;;
10293;SDS011;5192;50.328;7.610;2022-08-19T14:02:13;7.43;;;6.72;;
10293;SDS011;5192;50.328;7.610;2022-08-19T14:04:39;7.93;;;7.32;;
10293;SDS011;5192;50.328;7.610;2022-08-19T14:07:12;8.38;;;7.57;;
10293;SDS011;5192;50.328;7.610;2022-08-19T14:09:37;7.90;;;7.25;;
10293;SDS011;5192;50.328;7.610;2022-08-19T14:12:06;7.72;;;7.00;;
10293;SDS011;5192;50.328;7.610;2022-08-19T14:14:35;8.27;;;7.10;;
10293;SDS011;5192;50.328;7.610;2022-08-19T14:17:07;7.13;;;6.55;;
10293;SDS011;5192;50.328;7.610;2022-08-19T14:19:34;7.10;;;6.50;;
10293;SDS011;5192;50.328;7.610;2022-08-19T14:22:02;7.60;;;7.00;;
10293;SDS011;5192;50.328;7.610;2022-08-19T14:24:37;7.97;;;7.38;;
10293;SDS011;5192;50.328;7.610;2022-08-19T14:27:06;7.00;;;6.50;;
10293;SDS011;5192;50.328;7.610;2022-08-19T14:29:32;7.10;;;6.50;;
10293;SDS011;5192;50.328;7.610;2022-08-19T14:31:58;8.07;;;7.32;;
10293;SDS011;5192;50.328;7.610;2022-08-19T14:34:32;7.90;;;7.30;;
10293;SDS011;5192;50.328;7.610;2022-08-19T14:36:58;8.73;;;7.82;;
10293;SDS011;5192;50.328;7.610;2022-08-19T14:39:35;8.55;;;7.93;;
10293;SDS011;5192;50.328;7.610;2022-08-19T14:42:06;8.38;;;7.78;;
10293;SDS011;5192;50.328;7.610;2022-08-19T14:44:35;7.97;;;7.32;;
10293;SDS011;5192;50.328;7.610;2022-08-19T14:47:05;7.25;;;6.72;;
10293;SDS011;5192;50.328;7.610;2022-08-19T14:49:34;8.15;;;7.55;;
10293;SDS011;5192;50.328;7.610;2022-08-19T14:52:06;8.50;;;7.70;;
10293;SDS011;5192;50.328;7.610;2022-08-19T14:54:32;8.13;;;7.43;;
10293;SDS011;5192;50.328;7.610;2022-08-19T14:56:58;8.10;;;7.50;;
10293;SDS011;5192;50.328;7.610;2022-08-19T14:59:25;8.77;;;8.05;;
10293;SDS011;5192;50.328;7.610;2022-08-19T15:01:54;8.63;;;8.00;;
10293;SDS011;5192;50.328;7.610;2022-08-19T15:04:26;9.95;;;8.93;;
10293;SDS011;5192;50.328;7.610;2022-08-19T15:06:53;9.48;;;8.68;;
10293;SDS011;5192;50.328;7.610;2022-08-19T15:09:26;9.43;;;8.63;;
10293;SDS011;5192;50.328;7.610;2022-08-19T15:11:52;9.68;;;8.88;;
10293;SDS011;5192;50.328;7.610;2022-08-19T15:14:19;9.63;;;8.82;;
10293;SDS011;5192;50.328;7.610;2022-08-19T15:16:53;9.52;;;8.82;;
10293;SDS011;5192;50.328;7.610;2022-08-19T15:19:26;9.88;;;9.02;;
10293;SDS011;5192;50.328;7.610;2022-08-19T15:21:52;10.02;;;9.18;;